sensor_id;sensor_type;location;lat;lon;timestamp;P1;durP1;ratioP1;P2;durP2;ratioP2
23680;SDS011;62915;50.832;4.462;2022-12-17T00:05:03;42.42;;;22.92;;
23680;SDS011;62915;50.832;4.462;2022-12-17T00:07:54;37.17;;;23.10;;
23680;SDS011;62915;50.832;4.462;2022-12-17T00:10:42;37.92;;;23.63;;
23680;SDS011;62915;50.832;4.462;2022-12-17T00:16:10;40.95;;;23.13;;
23680;SDS011;62915;50.832;4.462;2022-12-17T00:18:54;42.97;;;23.85;;
23680;SDS011;62915;50.832;4.462;2022-12-17T00:24:39;44.60;;;23.02;;
23680;SDS011;62915;50.832;4.462;2022-12-17T00:27:24;38.58;;;21.45;;
23680;SDS011;62915;50.832;4.462;2022-12-17T00:30:08;44.38;;;22.92;;
23680;SDS011;62915;50.832;4.462;2022-12-17T00:32:53;35.45;;;21.77;;
23680;SDS011;62915;50.832;4.462;2022-12-17T00:38:21;36.58;;;21.38;;
23680;SDS011;62915;50.832;4.462;2022-12-17T00:43:49;30.02;;;15.73;;
23680;SDS011;62915;50.832;4.462;2022-12-17T00:49:17;33.95;;;20.73;;
23680;SDS011;62915;50.832;4.462;2022-12-17T00:54:46;31.25;;;19.35;;
23680;SDS011;62915;50.832;4.462;2022-12-17T00:57:30;38.13;;;22.15;;
23680;SDS011;62915;50.832;4.462;2022-12-17T01:00:14;41.88;;;21.20;;
23680;SDS011;62915;50.832;4.462;2022-12-17T01:03:11;38.83;;;20.70;;
23680;SDS011;62915;50.832;4.462;2022-12-17T01:05:59;31.02;;;19.20;;
23680;SDS011;62915;50.832;4.462;2022-12-17T01:08:58;34.22;;;19.15;;
23680;SDS011;62915;50.832;4.462;2022-12-17T01:11:42;29.83;;;18.92;;
23680;SDS011;62915;50.832;4.462;2022-12-17T01:14:26;36.17;;;20.65;;
23680;SDS011;62915;50.832;4.462;2022-12-17T01:19:55;29.75;;;17.17;;
23680;SDS011;62915;50.832;4.462;2022-12-17T01:22:39;30.85;;;18.50;;
23680;SDS011;62915;50.832;4.462;2022-12-17T01:25:23;32.75;;;18.65;;
23680;SDS011;62915;50.832;4.462;2022-12-17T01:30:55;32.55;;;18.08;;
23680;SDS011;62915;50.832;4.462;2022-12-17T01:33:39;31.77;;;19.27;;
23680;SDS011;62915;50.832;4.462;2022-12-17T01:36:25;35.08;;;18.42;;
23680;SDS011;62915;50.832;4.462;2022-12-17T01:39:10;32.63;;;18.67;;
23680;SDS011;62915;50.832;4.462;2022-12-17T01:47:29;27.17;;;16.80;;
23680;SDS011;62915;50.832;4.462;2022-12-17T01:50:22;29.98;;;17.77;;
23680;SDS011;62915;50.832;4.462;2022-12-17T01:53:08;28.70;;;17.25;;
23680;SDS011;62915;50.832;4.462;2022-12-17T01:55:54;27.40;;;17.33;;
23680;SDS011;62915;50.832;4.462;2022-12-17T01:58:39;34.70;;;18.00;;
23680;SDS011;62915;50.832;4.462;2022-12-17T02:01:24;26.77;;;17.55;;
23680;SDS011;62915;50.832;4.462;2022-12-17T02:04:09;26.80;;;17.58;;
23680;SDS011;62915;50.832;4.462;2022-12-17T02:06:58;26.10;;;16.77;;
23680;SDS011;62915;50.832;4.462;2022-12-17T02:13:01;30.80;;;17.35;;
23680;SDS011;62915;50.832;4.462;2022-12-17T02:15:57;26.48;;;17.08;;
23680;SDS011;62915;50.832;4.462;2022-12-17T02:18:50;29.02;;;17.00;;
23680;SDS011;62915;50.832;4.462;2022-12-17T02:21:39;28.17;;;17.08;;
23680;SDS011;62915;50.832;4.462;2022-12-17T02:24:43;28.65;;;17.45;;
23680;SDS011;62915;50.832;4.462;2022-12-17T02:27:52;30.90;;;18.13;;
23680;SDS011;62915;50.832;4.462;2022-12-17T02:33:20;30.15;;;17.58;;
23680;SDS011;62915;50.832;4.462;2022-12-17T02:36:10;33.38;;;17.48;;
23680;SDS011;62915;50.832;4.462;2022-12-17T02:38:54;31.45;;;17.90;;
23680;SDS011;62915;50.832;4.462;2022-12-17T02:41:40;27.25;;;16.98;;
23680;SDS011;62915;50.832;4.462;2022-12-17T02:44:30;31.60;;;16.80;;
23680;SDS011;62915;50.832;4.462;2022-12-17T02:47:15;29.17;;;17.90;;
23680;SDS011;62915;50.832;4.462;2022-12-17T02:50:01;30.30;;;18.08;;
23680;SDS011;62915;50.832;4.462;2022-12-17T02:52:45;32.97;;;18.52;;
23680;SDS011;62915;50.832;4.462;2022-12-17T02:55:31;30.80;;;17.20;;
23680;SDS011;62915;50.832;4.462;2022-12-17T02:58:15;27.73;;;17.42;;
23680;SDS011;62915;50.832;4.462;2022-12-17T03:01:00;31.55;;;18.33;;
23680;SDS011;62915;50.832;4.462;2022-12-17T03:03:44;29.02;;;17.48;;
23680;SDS011;62915;50.832;4.462;2022-12-17T03:06:28;28.75;;;17.20;;
23680;SDS011;62915;50.832;4.462;2022-12-17T03:09:13;28.23;;;16.80;;
23680;SDS011;62915;50.832;4.462;2022-12-17T03:14:41;27.48;;;15.82;;
23680;SDS011;62915;50.832;4.462;2022-12-17T03:20:09;19.30;;;11.88;;
23680;SDS011;62915;50.832;4.462;2022-12-17T03:23:00;27.33;;;15.40;;
23680;SDS011;62915;50.832;4.462;2022-12-17T03:25:47;28.52;;;15.13;;
23680;SDS011;62915;50.832;4.462;2022-12-17T03:31:15;31.75;;;16.25;;
23680;SDS011;62915;50.832;4.462;2022-12-17T03:34:00;25.13;;;16.27;;
23680;SDS011;62915;50.832;4.462;2022-12-17T03:36:44;24.65;;;16.52;;
23680;SDS011;62915;50.832;4.462;2022-12-17T03:39:28;26.60;;;16.48;;
23680;SDS011;62915;50.832;4.462;2022-12-17T03:44:56;27.38;;;15.73;;
23680;SDS011;62915;50.832;4.462;2022-12-17T03:50:24;26.48;;;14.82;;
23680;SDS011;62915;50.832;4.462;2022-12-17T03:53:08;28.67;;;16.60;;
23680;SDS011;62915;50.832;4.462;2022-12-17T03:58:37;29.30;;;17.17;;
23680;SDS011;62915;50.832;4.462;2022-12-17T04:01:21;29.63;;;17.15;;
23680;SDS011;62915;50.832;4.462;2022-12-17T04:04:05;33.80;;;18.40;;
23680;SDS011;62915;50.832;4.462;2022-12-17T04:06:49;30.83;;;17.90;;
23680;SDS011;62915;50.832;4.462;2022-12-17T04:09:33;31.20;;;17.40;;
23680;SDS011;62915;50.832;4.462;2022-12-17T04:15:01;25.25;;;15.25;;
23680;SDS011;62915;50.832;4.462;2022-12-17T04:17:45;27.00;;;15.95;;
23680;SDS011;62915;50.832;4.462;2022-12-17T04:20:29;27.52;;;17.35;;
23680;SDS011;62915;50.832;4.462;2022-12-17T04:23:13;28.35;;;16.88;;
23680;SDS011;62915;50.832;4.462;2022-12-17T04:25:57;25.88;;;16.17;;
23680;SDS011;62915;50.832;4.462;2022-12-17T04:28:41;26.70;;;18.08;;
23680;SDS011;62915;50.832;4.462;2022-12-17T04:34:10;27.17;;;15.77;;
23680;SDS011;62915;50.832;4.462;2022-12-17T04:39:38;17.92;;;11.98;;
23680;SDS011;62915;50.832;4.462;2022-12-17T04:45:26;28.52;;;16.70;;
23680;SDS011;62915;50.832;4.462;2022-12-17T04:50:54;30.07;;;17.13;;
23680;SDS011;62915;50.832;4.462;2022-12-17T04:53:38;30.92;;;15.57;;
23680;SDS011;62915;50.832;4.462;2022-12-17T04:59:07;27.63;;;16.60;;
23680;SDS011;62915;50.832;4.462;2022-12-17T05:01:51;30.83;;;17.02;;
23680;SDS011;62915;50.832;4.462;2022-12-17T05:04:35;28.90;;;18.25;;
23680;SDS011;62915;50.832;4.462;2022-12-17T05:07:19;31.70;;;18.55;;
23680;SDS011;62915;50.832;4.462;2022-12-17T05:15:38;30.67;;;16.40;;
23680;SDS011;62915;50.832;4.462;2022-12-17T05:18:22;29.10;;;18.35;;
23680;SDS011;62915;50.832;4.462;2022-12-17T05:23:50;31.08;;;18.33;;
23680;SDS011;62915;50.832;4.462;2022-12-17T05:26:34;29.98;;;18.70;;
23680;SDS011;62915;50.832;4.462;2022-12-17T05:29:18;28.70;;;17.98;;
23680;SDS011;62915;50.832;4.462;2022-12-17T05:32:02;32.45;;;19.02;;
23680;SDS011;62915;50.832;4.462;2022-12-17T05:37:31;27.85;;;16.63;;
23680;SDS011;62915;50.832;4.462;2022-12-17T05:40:15;29.63;;;18.17;;
23680;SDS011;62915;50.832;4.462;2022-12-17T05:43:00;33.03;;;20.92;;
23680;SDS011;62915;50.832;4.462;2022-12-17T05:45:47;27.80;;;18.65;;
23680;SDS011;62915;50.832;4.462;2022-12-17T05:48:32;31.25;;;18.60;;
23680;SDS011;62915;50.832;4.462;2022-12-17T05:51:17;31.92;;;19.38;;
23680;SDS011;62915;50.832;4.462;2022-12-17T05:56:45;34.72;;;18.23;;
23680;SDS011;62915;50.832;4.462;2022-12-17T05:59:29;38.95;;;20.73;;
23680;SDS011;62915;50.832;4.462;2022-12-17T06:04:57;40.55;;;21.98;;
23680;SDS011;62915;50.832;4.462;2022-12-17T06:07:41;32.70;;;19.10;;
23680;SDS011;62915;50.832;4.462;2022-12-17T06:13:09;29.92;;;18.27;;
23680;SDS011;62915;50.832;4.462;2022-12-17T06:15:54;29.70;;;18.85;;
23680;SDS011;62915;50.832;4.462;2022-12-17T06:18:38;30.98;;;19.77;;
23680;SDS011;62915;50.832;4.462;2022-12-17T06:21:22;34.58;;;21.70;;
23680;SDS011;62915;50.832;4.462;2022-12-17T06:24:06;37.28;;;23.17;;
23680;SDS011;62915;50.832;4.462;2022-12-17T06:29:34;32.85;;;20.50;;
23680;SDS011;62915;50.832;4.462;2022-12-17T06:35:03;36.20;;;20.23;;
23680;SDS011;62915;50.832;4.462;2022-12-17T06:37:47;37.92;;;21.58;;
23680;SDS011;62915;50.832;4.462;2022-12-17T06:40:39;37.38;;;22.55;;
23680;SDS011;62915;50.832;4.462;2022-12-17T06:43:23;39.15;;;23.27;;
23680;SDS011;62915;50.832;4.462;2022-12-17T06:46:07;37.67;;;21.88;;
23680;SDS011;62915;50.832;4.462;2022-12-17T06:48:52;38.88;;;20.80;;
23680;SDS011;62915;50.832;4.462;2022-12-17T06:54:20;37.05;;;22.45;;
23680;SDS011;62915;50.832;4.462;2022-12-17T06:59:48;37.58;;;22.25;;
23680;SDS011;62915;50.832;4.462;2022-12-17T07:02:32;40.47;;;23.45;;
23680;SDS011;62915;50.832;4.462;2022-12-17T07:05:16;38.08;;;22.77;;
23680;SDS011;62915;50.832;4.462;2022-12-17T07:08:00;39.90;;;22.42;;
23680;SDS011;62915;50.832;4.462;2022-12-17T07:10:44;43.55;;;23.30;;
23680;SDS011;62915;50.832;4.462;2022-12-17T07:16:12;35.72;;;21.92;;
23680;SDS011;62915;50.832;4.462;2022-12-17T07:18:57;40.10;;;23.25;;
23680;SDS011;62915;50.832;4.462;2022-12-17T07:21:41;38.47;;;22.92;;
23680;SDS011;62915;50.832;4.462;2022-12-17T07:24:25;40.47;;;24.15;;
23680;SDS011;62915;50.832;4.462;2022-12-17T07:27:10;52.40;;;26.10;;
23680;SDS011;62915;50.832;4.462;2022-12-17T07:32:38;41.70;;;24.58;;
23680;SDS011;62915;50.832;4.462;2022-12-17T07:38:07;45.47;;;23.83;;
23680;SDS011;62915;50.832;4.462;2022-12-17T07:40:51;57.22;;;28.83;;
23680;SDS011;62915;50.832;4.462;2022-12-17T07:43:35;48.50;;;28.23;;
23680;SDS011;62915;50.832;4.462;2022-12-17T07:49:03;56.33;;;29.55;;
23680;SDS011;62915;50.832;4.462;2022-12-17T07:54:32;55.33;;;27.52;;
23680;SDS011;62915;50.832;4.462;2022-12-17T08:00:03;58.97;;;28.33;;
23680;SDS011;62915;50.832;4.462;2022-12-17T08:02:48;49.83;;;27.90;;
23680;SDS011;62915;50.832;4.462;2022-12-17T08:08:16;53.92;;;28.58;;
23680;SDS011;62915;50.832;4.462;2022-12-17T08:11:00;54.55;;;28.33;;
23680;SDS011;62915;50.832;4.462;2022-12-17T08:16:28;59.17;;;28.27;;
23680;SDS011;62915;50.832;4.462;2022-12-17T08:21:57;58.80;;;28.55;;
23680;SDS011;62915;50.832;4.462;2022-12-17T08:30:10;73.57;;;34.50;;
23680;SDS011;62915;50.832;4.462;2022-12-17T08:32:54;73.80;;;33.80;;
23680;SDS011;62915;50.832;4.462;2022-12-17T08:38:30;58.22;;;28.38;;
23680;SDS011;62915;50.832;4.462;2022-12-17T08:41:15;58.70;;;30.10;;
23680;SDS011;62915;50.832;4.462;2022-12-17T08:46:43;54.15;;;27.85;;
23680;SDS011;62915;50.832;4.462;2022-12-17T08:52:12;56.78;;;28.67;;
23680;SDS011;62915;50.832;4.462;2022-12-17T08:54:56;59.60;;;30.23;;
23680;SDS011;62915;50.832;4.462;2022-12-17T08:57:40;64.40;;;30.85;;
23680;SDS011;62915;50.832;4.462;2022-12-17T09:00:24;51.10;;;28.58;;
23680;SDS011;62915;50.832;4.462;2022-12-17T09:03:08;52.53;;;28.27;;
23680;SDS011;62915;50.832;4.462;2022-12-17T09:05:52;56.22;;;29.45;;
23680;SDS011;62915;50.832;4.462;2022-12-17T09:08:37;66.13;;;31.25;;
23680;SDS011;62915;50.832;4.462;2022-12-17T09:11:23;56.30;;;29.92;;
23680;SDS011;62915;50.832;4.462;2022-12-17T09:14:08;62.78;;;30.45;;
23680;SDS011;62915;50.832;4.462;2022-12-17T09:16:52;57.55;;;30.52;;
23680;SDS011;62915;50.832;4.462;2022-12-17T09:22:21;44.28;;;22.23;;
23680;SDS011;62915;50.832;4.462;2022-12-17T09:25:05;56.60;;;28.98;;
23680;SDS011;62915;50.832;4.462;2022-12-17T09:27:50;60.60;;;29.80;;
23680;SDS011;62915;50.832;4.462;2022-12-17T09:33:18;54.22;;;28.50;;
23680;SDS011;62915;50.832;4.462;2022-12-17T09:38:47;55.78;;;27.42;;
23680;SDS011;62915;50.832;4.462;2022-12-17T09:44:33;59.23;;;29.57;;
23680;SDS011;62915;50.832;4.462;2022-12-17T09:51:13;64.85;;;32.72;;
23680;SDS011;62915;50.832;4.462;2022-12-17T09:54:04;60.28;;;33.25;;
23680;SDS011;62915;50.832;4.462;2022-12-17T09:56:54;63.72;;;31.40;;
23680;SDS011;62915;50.832;4.462;2022-12-17T09:59:59;49.22;;;28.23;;
23680;SDS011;62915;50.832;4.462;2022-12-17T10:02:49;50.38;;;28.25;;
23680;SDS011;62915;50.832;4.462;2022-12-17T10:05:33;45.30;;;24.67;;
23680;SDS011;62915;50.832;4.462;2022-12-17T10:08:19;46.47;;;25.77;;
23680;SDS011;62915;50.832;4.462;2022-12-17T10:11:14;49.60;;;29.02;;
23680;SDS011;62915;50.832;4.462;2022-12-17T10:14:02;44.08;;;25.38;;
23680;SDS011;62915;50.832;4.462;2022-12-17T10:16:54;49.47;;;28.90;;
23680;SDS011;62915;50.832;4.462;2022-12-17T10:19:38;51.10;;;29.40;;
23680;SDS011;62915;50.832;4.462;2022-12-17T10:22:25;54.13;;;29.40;;
23680;SDS011;62915;50.832;4.462;2022-12-17T10:28:10;54.95;;;32.38;;
23680;SDS011;62915;50.832;4.462;2022-12-17T10:30:56;46.67;;;27.63;;
23680;SDS011;62915;50.832;4.462;2022-12-17T10:33:41;43.35;;;27.08;;
23680;SDS011;62915;50.832;4.462;2022-12-17T10:36:27;43.45;;;26.08;;
23680;SDS011;62915;50.832;4.462;2022-12-17T10:39:16;43.28;;;26.48;;
23680;SDS011;62915;50.832;4.462;2022-12-17T10:42:16;46.10;;;26.27;;
23680;SDS011;62915;50.832;4.462;2022-12-17T10:48:22;48.85;;;28.52;;
23680;SDS011;62915;50.832;4.462;2022-12-17T10:51:20;48.25;;;27.42;;
23680;SDS011;62915;50.832;4.462;2022-12-17T10:57:04;43.85;;;25.85;;
23680;SDS011;62915;50.832;4.462;2022-12-17T10:59:49;45.63;;;25.83;;
23680;SDS011;62915;50.832;4.462;2022-12-17T11:02:34;50.13;;;28.05;;
23680;SDS011;62915;50.832;4.462;2022-12-17T11:05:26;51.70;;;26.85;;
23680;SDS011;62915;50.832;4.462;2022-12-17T11:08:13;47.28;;;25.55;;
23680;SDS011;62915;50.832;4.462;2022-12-17T11:11:01;42.28;;;25.70;;
23680;SDS011;62915;50.832;4.462;2022-12-17T11:13:49;45.20;;;27.27;;
23680;SDS011;62915;50.832;4.462;2022-12-17T11:16:40;46.17;;;24.52;;
23680;SDS011;62915;50.832;4.462;2022-12-17T11:19:46;45.90;;;26.08;;
23680;SDS011;62915;50.832;4.462;2022-12-17T11:22:54;48.08;;;25.42;;
23680;SDS011;62915;50.832;4.462;2022-12-17T11:25:42;46.35;;;27.27;;
23680;SDS011;62915;50.832;4.462;2022-12-17T11:28:33;45.72;;;25.10;;
23680;SDS011;62915;50.832;4.462;2022-12-17T11:37:16;45.03;;;26.15;;
23680;SDS011;62915;50.832;4.462;2022-12-17T11:43:25;48.20;;;26.45;;
23680;SDS011;62915;50.832;4.462;2022-12-17T11:49:03;52.03;;;28.25;;
23680;SDS011;62915;50.832;4.462;2022-12-17T11:58:14;47.80;;;26.58;;
23680;SDS011;62915;50.832;4.462;2022-12-17T12:07:18;59.28;;;30.30;;
23680;SDS011;62915;50.832;4.462;2022-12-17T12:25:14;58.65;;;32.05;;
23680;SDS011;62915;50.832;4.462;2022-12-17T12:31:03;58.83;;;29.15;;
23680;SDS011;62915;50.832;4.462;2022-12-17T12:34:25;53.47;;;28.35;;
23680;SDS011;62915;50.832;4.462;2022-12-17T12:37:16;56.97;;;29.50;;
23680;SDS011;62915;50.832;4.462;2022-12-17T12:43:01;58.42;;;31.55;;
23680;SDS011;62915;50.832;4.462;2022-12-17T12:46:09;62.13;;;32.70;;
23680;SDS011;62915;50.832;4.462;2022-12-17T12:51:57;58.55;;;29.95;;
23680;SDS011;62915;50.832;4.462;2022-12-17T12:57:31;65.00;;;32.47;;
23680;SDS011;62915;50.832;4.462;2022-12-17T13:06:36;72.07;;;33.10;;
23680;SDS011;62915;50.832;4.462;2022-12-17T13:14:32;53.67;;;28.15;;
23680;SDS011;62915;50.832;4.462;2022-12-17T13:19:39;56.97;;;28.73;;
23680;SDS011;62915;50.832;4.462;2022-12-17T13:24:41;59.22;;;30.92;;
23680;SDS011;62915;50.832;4.462;2022-12-17T13:32:57;68.15;;;32.03;;
23680;SDS011;62915;50.832;4.462;2022-12-17T13:38:04;60.70;;;32.20;;
23680;SDS011;62915;50.832;4.462;2022-12-17T13:40:45;69.80;;;34.80;;
23680;SDS011;62915;50.832;4.462;2022-12-17T13:43:20;64.97;;;32.80;;
23680;SDS011;62915;50.832;4.462;2022-12-17T13:45:55;68.22;;;34.10;;
23680;SDS011;62915;50.832;4.462;2022-12-17T13:48:22;62.10;;;31.45;;
23680;SDS011;62915;50.832;4.462;2022-12-17T13:53:26;57.80;;;31.00;;
23680;SDS011;62915;50.832;4.462;2022-12-17T13:55:54;60.47;;;30.42;;
23680;SDS011;62915;50.832;4.462;2022-12-17T13:58:26;57.92;;;30.52;;
23680;SDS011;62915;50.832;4.462;2022-12-17T14:01:07;57.72;;;29.83;;
23680;SDS011;62915;50.832;4.462;2022-12-17T14:03:35;57.08;;;30.40;;
23680;SDS011;62915;50.832;4.462;2022-12-17T14:06:02;55.08;;;29.60;;
23680;SDS011;62915;50.832;4.462;2022-12-17T14:08:31;65.72;;;32.50;;
23680;SDS011;62915;50.832;4.462;2022-12-17T14:10:58;60.22;;;31.77;;
23680;SDS011;62915;50.832;4.462;2022-12-17T14:13:47;59.63;;;30.13;;
23680;SDS011;62915;50.832;4.462;2022-12-17T14:16:17;57.83;;;30.73;;
23680;SDS011;62915;50.832;4.462;2022-12-17T14:18:46;61.60;;;31.90;;
23680;SDS011;62915;50.832;4.462;2022-12-17T14:21:15;58.33;;;31.92;;
23680;SDS011;62915;50.832;4.462;2022-12-17T14:23:41;67.50;;;30.65;;
23680;SDS011;62915;50.832;4.462;2022-12-17T14:26:09;62.03;;;32.47;;
23680;SDS011;62915;50.832;4.462;2022-12-17T14:28:43;58.70;;;30.83;;
23680;SDS011;62915;50.832;4.462;2022-12-17T14:33:38;61.05;;;31.08;;
23680;SDS011;62915;50.832;4.462;2022-12-17T14:36:06;60.10;;;31.52;;
23680;SDS011;62915;50.832;4.462;2022-12-17T14:38:33;62.13;;;30.58;;
23680;SDS011;62915;50.832;4.462;2022-12-17T14:41:00;71.75;;;35.33;;
23680;SDS011;62915;50.832;4.462;2022-12-17T14:43:56;78.22;;;35.60;;
23680;SDS011;62915;50.832;4.462;2022-12-17T14:46:27;70.75;;;32.67;;
23680;SDS011;62915;50.832;4.462;2022-12-17T14:49:01;66.10;;;35.40;;
23680;SDS011;62915;50.832;4.462;2022-12-17T14:57:03;64.45;;;33.25;;
23680;SDS011;62915;50.832;4.462;2022-12-17T14:59:31;62.80;;;32.97;;
23680;SDS011;62915;50.832;4.462;2022-12-17T15:04:32;70.47;;;34.08;;
23680;SDS011;62915;50.832;4.462;2022-12-17T15:07:02;66.07;;;32.15;;
23680;SDS011;62915;50.832;4.462;2022-12-17T15:09:34;66.32;;;33.08;;
23680;SDS011;62915;50.832;4.462;2022-12-17T15:12:16;61.28;;;32.63;;
23680;SDS011;62915;50.832;4.462;2022-12-17T15:14:43;66.85;;;31.98;;
23680;SDS011;62915;50.832;4.462;2022-12-17T15:17:09;66.05;;;32.67;;
23680;SDS011;62915;50.832;4.462;2022-12-17T15:19:35;68.25;;;32.47;;
23680;SDS011;62915;50.832;4.462;2022-12-17T15:22:02;64.43;;;33.65;;
23680;SDS011;62915;50.832;4.462;2022-12-17T15:24:28;73.07;;;35.08;;
23680;SDS011;62915;50.832;4.462;2022-12-17T15:26:57;69.47;;;34.58;;
23680;SDS011;62915;50.832;4.462;2022-12-17T15:29:23;69.30;;;33.78;;
23680;SDS011;62915;50.832;4.462;2022-12-17T15:31:50;65.72;;;34.28;;
23680;SDS011;62915;50.832;4.462;2022-12-17T15:34:23;69.68;;;35.28;;
23680;SDS011;62915;50.832;4.462;2022-12-17T15:36:48;53.55;;;28.95;;
23680;SDS011;62915;50.832;4.462;2022-12-17T15:39:16;74.60;;;35.75;;
23680;SDS011;62915;50.832;4.462;2022-12-17T15:41:42;67.35;;;35.13;;
23680;SDS011;62915;50.832;4.462;2022-12-17T15:46:52;63.88;;;32.65;;
23680;SDS011;62915;50.832;4.462;2022-12-17T15:49:17;64.47;;;33.97;;
23680;SDS011;62915;50.832;4.462;2022-12-17T15:51:46;63.78;;;33.45;;
23680;SDS011;62915;50.832;4.462;2022-12-17T15:54:11;64.82;;;33.10;;
23680;SDS011;62915;50.832;4.462;2022-12-17T15:56:39;66.35;;;33.30;;
23680;SDS011;62915;50.832;4.462;2022-12-17T15:59:05;69.43;;;34.13;;
23680;SDS011;62915;50.832;4.462;2022-12-17T16:01:31;73.65;;;34.63;;
23680;SDS011;62915;50.832;4.462;2022-12-17T16:04:01;70.32;;;34.75;;
23680;SDS011;62915;50.832;4.462;2022-12-17T16:06:29;68.13;;;34.58;;
23680;SDS011;62915;50.832;4.462;2022-12-17T16:08:57;65.28;;;33.95;;
23680;SDS011;62915;50.832;4.462;2022-12-17T16:11:26;64.35;;;33.28;;
23680;SDS011;62915;50.832;4.462;2022-12-17T16:13:54;72.90;;;36.90;;
23680;SDS011;62915;50.832;4.462;2022-12-17T16:16:25;68.38;;;34.13;;
23680;SDS011;62915;50.832;4.462;2022-12-17T16:18:53;64.55;;;33.75;;
23680;SDS011;62915;50.832;4.462;2022-12-17T16:21:18;68.05;;;35.28;;
23680;SDS011;62915;50.832;4.462;2022-12-17T16:23:51;67.45;;;34.47;;
23680;SDS011;62915;50.832;4.462;2022-12-17T16:26:17;56.63;;;27.38;;
23680;SDS011;62915;50.832;4.462;2022-12-17T16:28:43;71.72;;;34.92;;
23680;SDS011;62915;50.832;4.462;2022-12-17T16:31:10;74.78;;;34.70;;
23680;SDS011;62915;50.832;4.462;2022-12-17T16:33:38;75.22;;;35.97;;
23680;SDS011;62915;50.832;4.462;2022-12-17T16:36:09;69.82;;;36.22;;
23680;SDS011;62915;50.832;4.462;2022-12-17T16:38:41;76.32;;;37.65;;
23680;SDS011;62915;50.832;4.462;2022-12-17T16:41:11;75.40;;;36.58;;
23680;SDS011;62915;50.832;4.462;2022-12-17T16:43:37;83.22;;;38.70;;
23680;SDS011;62915;50.832;4.462;2022-12-17T16:46:03;74.72;;;37.15;;
23680;SDS011;62915;50.832;4.462;2022-12-17T16:48:29;74.30;;;37.92;;
23680;SDS011;62915;50.832;4.462;2022-12-17T16:51:01;78.50;;;40.25;;
23680;SDS011;62915;50.832;4.462;2022-12-17T16:53:43;83.65;;;40.58;;
23680;SDS011;62915;50.832;4.462;2022-12-17T16:56:19;89.40;;;41.17;;
23680;SDS011;62915;50.832;4.462;2022-12-17T16:58:46;83.55;;;40.22;;
23680;SDS011;62915;50.832;4.462;2022-12-17T17:01:16;82.63;;;40.65;;
23680;SDS011;62915;50.832;4.462;2022-12-17T17:03:46;78.60;;;39.47;;
23680;SDS011;62915;50.832;4.462;2022-12-17T17:06:12;76.43;;;36.42;;
23680;SDS011;62915;50.832;4.462;2022-12-17T17:08:38;75.82;;;37.33;;
23680;SDS011;62915;50.832;4.462;2022-12-17T17:11:10;76.65;;;38.50;;
23680;SDS011;62915;50.832;4.462;2022-12-17T17:16:04;66.40;;;32.65;;
23680;SDS011;62915;50.832;4.462;2022-12-17T17:18:33;68.20;;;33.80;;
23680;SDS011;62915;50.832;4.462;2022-12-17T17:21:13;67.38;;;35.83;;
23680;SDS011;62915;50.832;4.462;2022-12-17T17:23:39;76.18;;;36.40;;
23680;SDS011;62915;50.832;4.462;2022-12-17T17:26:05;74.97;;;37.35;;
23680;SDS011;62915;50.832;4.462;2022-12-17T17:28:31;81.03;;;39.05;;
23680;SDS011;62915;50.832;4.462;2022-12-17T17:30:57;82.40;;;38.15;;
23680;SDS011;62915;50.832;4.462;2022-12-17T17:33:27;78.63;;;37.30;;
23680;SDS011;62915;50.832;4.462;2022-12-17T17:38:29;80.70;;;39.65;;
23680;SDS011;62915;50.832;4.462;2022-12-17T17:40:56;81.65;;;39.15;;
23680;SDS011;62915;50.832;4.462;2022-12-17T17:43:22;92.28;;;42.33;;
23680;SDS011;62915;50.832;4.462;2022-12-17T17:45:48;79.93;;;40.53;;
23680;SDS011;62915;50.832;4.462;2022-12-17T17:48:13;84.97;;;41.45;;
23680;SDS011;62915;50.832;4.462;2022-12-17T17:50:39;86.05;;;41.78;;
23680;SDS011;62915;50.832;4.462;2022-12-17T17:53:05;86.03;;;40.72;;
23680;SDS011;62915;50.832;4.462;2022-12-17T17:55:34;77.22;;;38.88;;
23680;SDS011;62915;50.832;4.462;2022-12-17T17:58:00;81.30;;;40.60;;
23680;SDS011;62915;50.832;4.462;2022-12-17T18:00:25;77.18;;;40.45;;
23680;SDS011;62915;50.832;4.462;2022-12-17T18:02:54;82.65;;;39.03;;
23680;SDS011;62915;50.832;4.462;2022-12-17T18:05:19;82.72;;;37.88;;
23680;SDS011;62915;50.832;4.462;2022-12-17T18:07:53;79.65;;;40.42;;
23680;SDS011;62915;50.832;4.462;2022-12-17T18:10:18;91.07;;;42.35;;
23680;SDS011;62915;50.832;4.462;2022-12-17T18:12:46;85.07;;;41.90;;
23680;SDS011;62915;50.832;4.462;2022-12-17T18:15:32;80.20;;;39.90;;
23680;SDS011;62915;50.832;4.462;2022-12-17T18:18:00;82.60;;;40.90;;
23680;SDS011;62915;50.832;4.462;2022-12-17T18:20:31;80.28;;;39.35;;
23680;SDS011;62915;50.832;4.462;2022-12-17T18:22:57;82.65;;;39.88;;
23680;SDS011;62915;50.832;4.462;2022-12-17T18:25:25;86.03;;;40.08;;
23680;SDS011;62915;50.832;4.462;2022-12-17T18:27:53;91.55;;;45.80;;
23680;SDS011;62915;50.832;4.462;2022-12-17T18:30:19;101.93;;;50.53;;
23680;SDS011;62915;50.832;4.462;2022-12-17T18:32:49;104.28;;;53.33;;
23680;SDS011;62915;50.832;4.462;2022-12-17T18:35:18;103.78;;;51.60;;
23680;SDS011;62915;50.832;4.462;2022-12-17T18:37:46;102.70;;;50.97;;
23680;SDS011;62915;50.832;4.462;2022-12-17T18:40:12;108.72;;;51.28;;
23680;SDS011;62915;50.832;4.462;2022-12-17T18:42:37;112.35;;;52.28;;
23680;SDS011;62915;50.832;4.462;2022-12-17T18:45:21;121.03;;;55.88;;
23680;SDS011;62915;50.832;4.462;2022-12-17T18:47:47;136.40;;;59.17;;
23680;SDS011;62915;50.832;4.462;2022-12-17T18:50:14;128.52;;;60.63;;
23680;SDS011;62915;50.832;4.462;2022-12-17T18:52:40;141.18;;;64.50;;
23680;SDS011;62915;50.832;4.462;2022-12-17T18:55:11;156.00;;;66.38;;
23680;SDS011;62915;50.832;4.462;2022-12-17T18:57:36;146.95;;;67.50;;
23680;SDS011;62915;50.832;4.462;2022-12-17T19:00:02;135.57;;;62.72;;
23680;SDS011;62915;50.832;4.462;2022-12-17T19:02:31;146.77;;;64.97;;
23680;SDS011;62915;50.832;4.462;2022-12-17T19:04:57;141.60;;;64.72;;
23680;SDS011;62915;50.832;4.462;2022-12-17T19:07:23;141.30;;;64.50;;
23680;SDS011;62915;50.832;4.462;2022-12-17T19:09:48;142.40;;;65.15;;
23680;SDS011;62915;50.832;4.462;2022-12-17T19:12:14;137.95;;;64.43;;
23680;SDS011;62915;50.832;4.462;2022-12-17T19:14:39;122.47;;;62.17;;
23680;SDS011;62915;50.832;4.462;2022-12-17T19:17:06;124.70;;;61.33;;
23680;SDS011;62915;50.832;4.462;2022-12-17T19:19:32;131.10;;;62.80;;
23680;SDS011;62915;50.832;4.462;2022-12-17T19:21:58;120.40;;;58.70;;
23680;SDS011;62915;50.832;4.462;2022-12-17T19:24:24;127.57;;;64.55;;
23680;SDS011;62915;50.832;4.462;2022-12-17T19:26:50;131.68;;;61.25;;
23680;SDS011;62915;50.832;4.462;2022-12-17T19:29:21;120.32;;;60.92;;
23680;SDS011;62915;50.832;4.462;2022-12-17T19:31:47;133.95;;;63.00;;
23680;SDS011;62915;50.832;4.462;2022-12-17T19:34:14;123.20;;;60.40;;
23680;SDS011;62915;50.832;4.462;2022-12-17T19:36:44;113.82;;;60.13;;
23680;SDS011;62915;50.832;4.462;2022-12-17T19:39:11;117.35;;;59.88;;
23680;SDS011;62915;50.832;4.462;2022-12-17T19:41:39;113.68;;;57.75;;
23680;SDS011;62915;50.832;4.462;2022-12-17T19:44:09;124.30;;;64.40;;
23680;SDS011;62915;50.832;4.462;2022-12-17T19:46:37;123.90;;;62.58;;
23680;SDS011;62915;50.832;4.462;2022-12-17T19:49:03;120.22;;;60.83;;
23680;SDS011;62915;50.832;4.462;2022-12-17T19:51:29;120.88;;;59.42;;